createdAt,value
2024-02-16T00:01:23.818Z,100188.50
2024-02-16T00:03:51.788Z,100181.63
2024-02-16T00:06:19.574Z,100182.72
2024-02-16T00:08:48.175Z,100184.56
2024-02-16T00:11:17.325Z,100186.53
2024-02-16T00:13:45.210Z,100186.78
2024-02-16T00:16:13.024Z,100175.28
2024-02-16T00:18:40.943Z,100175.53
2024-02-16T00:21:08.736Z,100170.47
2024-02-16T00:23:36.734Z,100168.75
2024-02-16T00:26:08.343Z,100179.44
2024-02-16T00:28:38.938Z,100181.25
2024-02-16T00:31:07.694Z,100180.53
2024-02-16T00:33:35.837Z,100171.97
2024-02-16T00:36:03.878Z,100166.03
2024-02-16T00:38:31.610Z,100167.03
2024-02-16T00:40:59.729Z,100167.44
2024-02-16T00:43:27.489Z,100160.53
2024-02-16T00:45:57.102Z,100162.38
2024-02-16T00:48:25.325Z,100158.97
2024-02-16T00:50:53.286Z,100170.59
2024-02-16T00:53:21.333Z,100170.47
2024-02-16T00:55:49.113Z,100162.59
2024-02-16T00:58:16.938Z,100166.00
2024-02-16T01:00:45.640Z,100170.47
2024-02-16T01:03:15.182Z,100171.31
2024-02-16T01:05:42.988Z,100166.97
2024-02-16T01:08:10.725Z,100172.19
2024-02-16T01:10:38.410Z,100173.97
2024-02-16T01:13:06.493Z,100177.50
2024-02-16T01:15:34.305Z,100173.97
2024-02-16T01:18:02.388Z,100177.63
2024-02-16T01:20:32.654Z,100173.97
2024-02-16T01:23:00.479Z,100177.63
2024-02-16T01:25:28.202Z,100173.03
2024-02-16T01:27:55.972Z,100174.13
2024-02-16T01:30:23.874Z,100171.47
2024-02-16T01:32:51.753Z,100170.59
2024-02-16T01:35:19.563Z,100173.16
2024-02-16T01:37:48.666Z,100170.59
2024-02-16T01:40:18.278Z,100172.31
2024-02-16T01:42:46.369Z,100173.16
2024-02-16T01:45:14.427Z,100165.28
2024-02-16T01:47:45.243Z,100174.25
2024-02-16T01:50:13.125Z,100173.44
2024-02-16T01:52:41.026Z,100169.78
2024-02-16T01:55:11.266Z,100168.94
2024-02-16T01:57:41.311Z,100163.72
2024-02-16T02:00:09.696Z,100169.06
2024-02-16T02:02:37.453Z,100164.72
2024-02-16T02:05:07.154Z,100162.19
2024-02-16T02:07:35.433Z,100159.50
2024-02-16T02:10:03.349Z,100159.63
2024-02-16T02:12:32.589Z,100161.59
2024-02-16T02:15:00.369Z,100152.03
2024-02-16T02:17:28.117Z,100153.88
2024-02-16T02:19:55.957Z,100151.34
2024-02-16T02:22:25.011Z,100153.16
2024-02-16T02:24:52.631Z,100146.97
2024-02-16T02:27:20.348Z,100150.63
2024-02-16T02:29:48.183Z,100143.59
2024-02-16T02:32:15.875Z,100140.91
2024-02-16T02:34:44.411Z,100144.56
2024-02-16T02:37:12.094Z,100149.19
2024-02-16T02:39:41.179Z,100149.31
2024-02-16T02:42:09.332Z,100145.94
2024-02-16T02:44:37.448Z,100153.22
2024-02-16T02:47:05.310Z,100148.28
2024-02-16T02:49:34.142Z,100150.47
2024-02-16T02:52:02.004Z,100149.06
2024-02-16T02:54:29.688Z,100136.25
2024-02-16T02:56:58.970Z,100145.34
2024-02-16T02:59:26.739Z,100134.22
2024-02-16T03:01:54.384Z,100123.00
2024-02-16T03:04:22.159Z,100131.81
2024-02-16T03:06:49.983Z,100133.75
2024-02-16T03:09:18.175Z,100142.47
2024-02-16T03:11:45.920Z,100146.94
2024-02-16T03:14:14.986Z,100144.28
2024-02-16T03:16:42.650Z,100139.94
2024-02-16T03:19:10.948Z,100145.00
2024-02-16T03:21:38.966Z,100146.72
2024-02-16T03:24:07.551Z,100137.63
2024-02-16T03:26:35.364Z,100149.97
2024-02-16T03:29:03.052Z,100144.38
2024-02-16T03:31:32.082Z,100147.88
2024-02-16T03:34:00.022Z,100140.75
2024-02-16T03:36:27.813Z,100143.25
2024-02-16T03:38:55.531Z,100147.63
2024-02-16T03:41:24.708Z,100148.59
2024-02-16T03:43:54.484Z,100148.84
2024-02-16T03:46:22.319Z,100153.13
2024-02-16T03:48:51.659Z,100156.56
2024-02-16T03:51:19.692Z,100158.88
2024-02-16T03:53:48.455Z,100169.28
2024-02-16T03:56:20.812Z,100162.50
2024-02-16T03:58:48.688Z,100168.22
2024-02-16T04:01:16.446Z,100164.00
2024-02-16T04:03:44.255Z,100168.84
2024-02-16T04:06:13.553Z,100170.06
2024-02-16T04:08:41.452Z,100170.34
2024-02-16T04:11:09.297Z,100168.75
2024-02-16T04:13:36.967Z,100169.47
2024-02-16T04:16:04.795Z,100165.84
2024-02-16T04:18:32.557Z,100162.09
2024-02-16T04:21:00.334Z,100164.75
2024-02-16T04:23:29.329Z,100168.25
2024-02-16T04:25:59.493Z,100171.16
2024-02-16T04:28:26.258Z,100168.63
2024-02-16T04:30:53.913Z,100178.66
2024-02-16T04:33:21.710Z,100174.44
2024-02-16T04:35:51.629Z,100177.09
2024-02-16T04:38:19.602Z,100177.09
2024-02-16T04:40:48.643Z,100172.75
2024-02-16T04:43:17.575Z,100179.88
2024-02-16T04:45:47.615Z,100181.81
2024-02-16T04:48:15.508Z,100184.03
2024-02-16T04:50:44.028Z,100185.97
2024-02-16T04:53:11.745Z,100185.25
2024-02-16T04:55:39.770Z,100192.72
2024-02-16T04:58:10.737Z,100189.09
2024-02-16T05:00:39.409Z,100185.69
2024-02-16T05:03:07.757Z,100184.88
2024-02-16T05:05:35.727Z,100185.59
2024-02-16T05:08:03.576Z,100188.84
2024-02-16T05:10:31.330Z,100183.66
2024-02-16T05:13:00.921Z,100185.25
2024-02-16T05:15:30.166Z,100185.34
2024-02-16T05:17:58.838Z,100183.53
2024-02-16T05:20:26.957Z,100185.47
2024-02-16T05:22:54.704Z,100182.59
2024-02-16T05:25:22.457Z,100181.97
2024-02-16T05:27:50.133Z,100182.81
2024-02-16T05:30:18.053Z,100184.38
2024-02-16T05:32:47.357Z,100188.00
2024-02-16T05:35:16.227Z,100186.31
2024-02-16T05:37:48.603Z,100188.13
2024-02-16T05:40:28.433Z,100193.56
2024-02-16T05:42:58.936Z,100190.91
2024-02-16T05:45:27.694Z,100188.38
2024-02-16T05:47:56.996Z,100196.34
2024-02-16T05:50:25.043Z,100196.00
2024-02-16T05:52:53.155Z,100194.31
2024-02-16T05:55:21.265Z,100196.59
2024-02-16T05:57:49.283Z,100202.03
2024-02-16T06:00:17.806Z,100200.59
2024-02-16T06:02:45.773Z,100204.34
2024-02-16T06:05:15.894Z,100204.81
2024-02-16T06:07:43.783Z,100204.94
2024-02-16T06:10:12.565Z,100205.41
2024-02-16T06:12:41.486Z,100201.41
2024-02-16T06:15:10.277Z,100211.78
2024-02-16T06:17:38.688Z,100206.47
2024-02-16T06:20:10.505Z,100208.41
2024-02-16T06:22:39.856Z,100210.22
2024-02-16T06:25:08.168Z,100220.13
2024-02-16T06:27:36.102Z,100217.59
2024-02-16T06:30:07.120Z,100219.63
2024-02-16T06:32:35.002Z,100222.44
2024-02-16T06:35:02.876Z,100223.63
2024-02-16T06:37:30.652Z,100229.66
2024-02-16T06:39:59.673Z,100224.22
2024-02-16T06:42:27.396Z,100233.28
2024-02-16T06:44:55.103Z,100238.00
2024-02-16T06:47:24.588Z,100236.06
2024-02-16T06:49:52.692Z,100248.06
2024-02-16T06:52:20.402Z,100235.84
2024-02-16T06:54:48.653Z,100246.13
2024-02-16T06:57:17.829Z,100245.69
2024-02-16T06:59:45.565Z,100248.81
2024-02-16T07:02:14.308Z,100259.31
2024-02-16T07:04:42.341Z,100256.19
2024-02-16T07:07:10.396Z,100270.09
2024-02-16T07:09:40.656Z,100271.78
2024-02-16T07:12:09.558Z,100272.50
2024-02-16T07:14:38.694Z,100278.69
2024-02-16T07:17:10.535Z,100274.94
2024-02-16T07:19:38.903Z,100274.69
2024-02-16T07:22:07.843Z,100278.22
2024-02-16T07:24:35.789Z,100285.19
2024-02-16T07:27:03.838Z,100284.25
2024-02-16T07:29:31.729Z,100279.78
2024-02-16T07:32:00.873Z,100286.91
2024-02-16T07:34:29.995Z,100292.22
2024-02-16T07:36:58.170Z,100291.63
2024-02-16T07:39:26.503Z,100298.03
2024-02-16T07:41:54.490Z,100300.53
2024-02-16T07:44:22.343Z,100304.41
2024-02-16T07:46:51.826Z,100310.59
2024-02-16T07:49:21.433Z,100304.41
2024-02-16T07:51:49.727Z,100304.19
2024-02-16T07:54:17.670Z,100299.72
2024-02-16T07:56:45.494Z,100296.09
2024-02-16T07:59:13.226Z,100302.88
2024-02-16T08:01:41.636Z,100313.13
2024-02-16T08:04:09.535Z,100296.59
2024-02-16T08:06:38.897Z,100302.16
2024-02-16T08:09:07.611Z,100310.47
2024-02-16T08:11:35.576Z,100308.06
2024-02-16T08:14:04.273Z,100310.38
2024-02-16T08:16:32.150Z,100307.94
2024-02-16T08:19:00.132Z,100313.50
2024-02-16T08:21:28.227Z,100311.94
2024-02-16T08:23:57.462Z,100308.66
2024-02-16T08:26:25.262Z,100308.88
2024-02-16T08:28:53.010Z,100311.91
2024-02-16T08:31:20.963Z,100314.78
2024-02-16T08:33:49.159Z,100323.00
2024-02-16T08:36:17.407Z,100316.31
2024-02-16T08:38:45.242Z,100320.03
2024-02-16T08:41:14.576Z,100317.56
2024-02-16T08:43:42.374Z,100321.28
2024-02-16T08:46:11.264Z,100326.69
2024-02-16T08:48:39.317Z,100317.94
2024-02-16T08:51:07.706Z,100318.13
2024-02-16T08:53:35.884Z,100320.16
2024-02-16T08:56:03.658Z,100321.19
2024-02-16T08:58:32.784Z,100312.66
2024-02-16T09:01:00.658Z,100319.03
2024-02-16T09:03:28.600Z,100316.69
2024-02-16T09:05:56.491Z,100316.28
2024-02-16T09:08:24.352Z,100318.56
2024-02-16T09:10:52.533Z,100318.28
2024-02-16T09:13:32.599Z,100318.03
2024-02-16T09:16:04.352Z,100329.34
2024-02-16T09:18:32.278Z,100333.56
2024-02-16T09:21:00.712Z,100331.47
2024-02-16T09:23:28.817Z,100335.56
2024-02-16T09:25:56.620Z,100340.47
2024-02-16T09:28:29.890Z,100346.28
2024-02-16T09:30:58.610Z,100354.47
2024-02-16T09:33:28.926Z,100344.78
2024-02-16T09:35:56.972Z,100347.63
2024-02-16T09:38:24.885Z,100358.47
2024-02-16T09:40:53.248Z,100348.94
2024-02-16T09:43:28.559Z,100358.13
2024-02-16T09:45:57.739Z,100361.78
2024-02-16T09:48:28.669Z,100362.06
2024-02-16T09:50:57.848Z,100358.28
2024-02-16T09:53:28.122Z,100369.31
2024-02-16T09:55:55.993Z,100363.25
2024-02-16T09:58:23.768Z,100362.44
2024-02-16T10:00:52.730Z,100363.84
2024-02-16T10:03:29.520Z,100356.63
2024-02-16T10:06:07.906Z,100366.63
2024-02-16T10:08:36.148Z,100367.19
2024-02-16T10:11:04.934Z,100363.22
2024-02-16T10:13:33.408Z,100363.75
2024-02-16T10:16:10.006Z,100367.00
2024-02-16T10:18:40.906Z,100373.75
2024-02-16T10:21:10.492Z,100379.81
2024-02-16T10:26:09.005Z,100378.69
2024-02-16T10:28:37.112Z,100383.75
2024-02-16T10:31:06.613Z,100383.59
2024-02-16T10:33:35.164Z,100387.69
2024-02-16T10:36:08.853Z,100390.78
2024-02-16T10:38:37.836Z,100396.66
2024-02-16T10:41:07.404Z,100395.25
2024-02-16T10:43:35.171Z,100391.00
2024-02-16T10:46:03.801Z,100400.53
2024-02-16T10:48:31.748Z,100399.06
2024-02-16T10:51:00.484Z,100396.06
2024-02-16T10:53:32.430Z,100407.97
2024-02-16T10:56:00.714Z,100405.31
2024-02-16T10:58:30.360Z,100405.63
2024-02-16T11:00:59.458Z,100409.34
2024-02-16T11:03:29.454Z,100408.66
2024-02-16T11:05:59.330Z,100407.63
2024-02-16T11:08:29.040Z,100402.69
2024-02-16T11:11:01.189Z,100400.13
2024-02-16T11:13:30.193Z,100404.09
2024-02-16T11:16:01.927Z,100399.28
2024-02-16T11:18:29.992Z,100396.59
2024-02-16T11:20:58.126Z,100400.50
2024-02-16T11:23:31.696Z,100396.47
2024-02-16T11:26:03.553Z,100400.53
2024-02-16T11:28:33.983Z,100409.81
2024-02-16T11:31:02.446Z,100412.81
2024-02-16T11:33:30.583Z,100407.16
2024-02-16T11:36:00.190Z,100404.31
2024-02-16T11:38:28.577Z,100409.16
2024-02-16T11:40:59.592Z,100411.47
2024-02-16T11:43:28.314Z,100406.91
2024-02-16T11:45:56.445Z,100403.88
2024-02-16T11:48:24.993Z,100402.34
2024-02-16T11:51:01.986Z,100400.50
2024-02-16T11:53:30.152Z,100400.53
2024-02-16T11:56:01.044Z,100402.63
2024-02-16T11:58:30.045Z,100399.13
2024-02-16T12:01:03.578Z,100396.81
2024-02-16T12:03:32.328Z,100403.22
2024-02-16T12:06:02.674Z,100402.22
2024-02-16T12:08:35.492Z,100401.91
2024-02-16T12:11:05.120Z,100407.78
2024-02-16T12:13:32.978Z,100406.28
2024-02-16T12:16:00.699Z,100404.59
2024-02-16T12:18:30.455Z,100403.78
2024-02-16T12:21:02.171Z,100398.88
2024-02-16T12:23:31.985Z,100412.00
2024-02-16T12:25:59.929Z,100401.88
2024-02-16T12:28:30.583Z,100395.41
2024-02-16T12:31:00.809Z,100407.00
2024-02-16T12:33:30.508Z,100406.63
2024-02-16T12:35:59.396Z,100407.97
2024-02-16T12:38:27.117Z,100404.31
2024-02-16T12:40:54.923Z,100407.88
2024-02-16T12:43:22.668Z,100405.38
2024-02-16T12:45:51.759Z,100410.94
2024-02-16T12:48:19.630Z,100408.63
2024-02-16T12:50:48.532Z,100409.16
2024-02-16T12:53:16.551Z,100418.94
2024-02-16T12:55:44.406Z,100415.56
2024-02-16T12:58:12.339Z,100413.34
2024-02-16T13:00:40.267Z,100411.16
2024-02-16T13:03:09.503Z,100416.41
2024-02-16T13:05:37.374Z,100418.75
2024-02-16T13:08:05.995Z,100423.97
2024-02-16T13:10:33.823Z,100415.88
2024-02-16T13:13:01.574Z,100427.50
2024-02-16T13:15:29.801Z,100428.63
2024-02-16T13:17:57.905Z,100428.63
2024-02-16T13:20:27.345Z,100427.94
2024-02-16T13:22:55.201Z,100431.28
2024-02-16T13:25:23.408Z,100425.50
2024-02-16T13:27:51.258Z,100431.16
2024-02-16T13:30:19.118Z,100437.66
2024-02-16T13:32:47.778Z,100433.41
2024-02-16T13:35:18.688Z,100433.53
2024-02-16T13:37:50.502Z,100438.53
2024-02-16T13:40:19.006Z,100435.50
2024-02-16T13:42:47.120Z,100440.66
2024-02-16T13:45:15.168Z,100436.94
2024-02-16T13:47:43.015Z,100439.56
2024-02-16T13:50:12.209Z,100433.97
2024-02-16T13:52:40.117Z,100442.16
2024-02-16T13:55:10.066Z,100438.38
2024-02-16T13:57:40.327Z,100449.75
2024-02-16T14:00:09.775Z,100449.53
2024-02-16T14:02:37.546Z,100453.78
2024-02-16T14:05:06.423Z,100458.78
2024-02-16T14:07:40.500Z,100454.03
2024-02-16T14:10:15.481Z,100467.22
2024-02-16T14:12:43.375Z,100469.69
2024-02-16T14:15:16.489Z,100469.28
2024-02-16T14:17:45.127Z,100471.56
2024-02-16T14:20:16.769Z,100476.25
2024-02-16T14:22:44.644Z,100476.72
2024-02-16T14:25:14.531Z,100479.31
2024-02-16T14:27:44.157Z,100481.91
2024-02-16T14:30:13.186Z,100482.50
2024-02-16T14:32:42.353Z,100491.28
2024-02-16T14:35:10.668Z,100488.19
2024-02-16T14:37:39.741Z,100488.78
2024-02-16T14:40:11.265Z,100492.06
2024-02-16T14:42:40.574Z,100495.34
2024-02-16T14:45:20.690Z,100488.72
2024-02-16T14:47:49.765Z,100490.31
2024-02-16T14:50:18.153Z,100499.47
2024-02-16T14:52:46.889Z,100506.28
2024-02-16T14:55:15.499Z,100503.16
2024-02-16T14:57:43.820Z,100492.19
2024-02-16T15:00:14.909Z,100502.50
2024-02-16T15:02:43.522Z,100504.78
2024-02-16T15:05:11.701Z,100505.63
2024-02-16T15:07:39.493Z,100511.41
2024-02-16T15:10:08.267Z,100512.69
2024-02-16T15:12:36.271Z,100513.09
2024-02-16T15:15:04.361Z,100517.19
2024-02-16T15:17:33.626Z,100522.53
2024-02-16T15:20:04.245Z,100524.69
2024-02-16T15:22:39.046Z,100523.28
2024-02-16T15:25:13.537Z,100523.41
2024-02-16T15:27:41.384Z,100526.38
2024-02-16T15:30:10.150Z,100530.31
2024-02-16T15:32:40.032Z,100534.97
2024-02-16T15:35:08.642Z,100543.00
2024-02-16T15:37:36.607Z,100546.09
2024-02-16T15:40:04.672Z,100547.06
2024-02-16T15:42:32.678Z,100548.91
2024-02-16T15:45:01.232Z,100553.44
2024-02-16T15:47:30.778Z,100555.41
2024-02-16T15:49:59.834Z,100563.44
2024-02-16T15:52:27.550Z,100566.09
2024-02-16T15:54:55.277Z,100564.41
2024-02-16T15:57:23.084Z,100569.03
2024-02-16T15:59:50.863Z,100566.38
2024-02-16T16:02:18.764Z,100571.88
2024-02-16T16:04:46.893Z,100579.03
2024-02-16T16:07:16.211Z,100582.72
2024-02-16T16:09:44.112Z,100577.63
2024-02-16T16:12:12.030Z,100592.00
2024-02-16T16:14:39.745Z,100594.81
2024-02-16T16:17:07.503Z,100586.91
2024-02-16T16:19:35.488Z,100587.91
2024-02-16T16:22:03.504Z,100596.09
2024-02-16T16:24:32.764Z,100594.53
2024-02-16T16:27:00.497Z,100597.22
2024-02-16T16:29:28.878Z,100603.66
2024-02-16T16:31:59.769Z,100600.28
2024-02-16T16:34:30.308Z,100604.78
2024-02-16T16:36:58.477Z,100613.06
2024-02-16T16:39:26.691Z,100615.03
2024-02-16T16:41:56.326Z,100612.66
2024-02-16T16:44:26.261Z,100619.13
2024-02-16T16:46:54.050Z,100632.63
2024-02-16T16:49:21.874Z,100629.38
2024-02-16T16:51:52.262Z,100635.72
2024-02-16T16:54:21.563Z,100638.41
2024-02-16T16:56:49.457Z,100647.41
2024-02-16T16:59:18.633Z,100651.28
2024-02-16T17:01:46.988Z,100654.94
2024-02-16T17:04:14.820Z,100653.50
2024-02-16T17:06:42.621Z,100662.53
2024-02-16T17:09:11.211Z,100669.72
2024-02-16T17:11:40.274Z,100678.81
2024-02-16T17:14:08.985Z,100677.16
2024-02-16T17:16:38.220Z,100675.59
2024-02-16T17:19:06.002Z,100681.19
2024-02-16T17:21:34.344Z,100684.84
2024-02-16T17:24:02.425Z,100686.78
2024-02-16T17:26:30.177Z,100689.63
2024-02-16T17:28:58.127Z,100700.44
2024-02-16T17:31:25.907Z,100700.69
2024-02-16T17:33:55.286Z,100703.53
2024-02-16T17:36:23.203Z,100710.66
2024-02-16T17:38:51.092Z,100718.13
2024-02-16T17:41:23.661Z,100717.41
2024-02-16T17:43:51.423Z,100722.88
2024-02-16T17:46:19.193Z,100719.50
2024-02-16T17:48:47.101Z,100726.66
2024-02-16T17:51:16.503Z,100733.09
2024-02-16T17:53:44.270Z,100733.38
2024-02-16T17:56:12.028Z,100736.31
2024-02-16T17:58:39.787Z,100741.94
2024-02-16T18:01:07.756Z,100744.97
2024-02-16T18:03:35.599Z,100742.41
2024-02-16T18:06:04.035Z,100752.53
2024-02-16T18:08:33.227Z,100751.94
2024-02-16T18:11:00.992Z,100760.91
2024-02-16T18:13:28.766Z,100766.66
2024-02-16T18:15:57.099Z,100772.13
2024-02-16T18:18:27.949Z,100775.91
2024-02-16T18:20:55.945Z,100789.38
2024-02-16T18:23:23.748Z,100794.00
2024-02-16T18:25:52.881Z,100795.09
2024-02-16T18:28:26.197Z,100801.56
2024-02-16T18:30:57.932Z,100805.44
2024-02-16T18:33:25.853Z,100807.25
2024-02-16T18:35:53.622Z,100809.19
2024-02-16T18:38:21.568Z,100805.81
2024-02-16T18:40:49.575Z,100815.88
2024-02-16T18:43:18.865Z,100816.03
2024-02-16T18:45:46.981Z,100812.75
2024-02-16T18:48:15.457Z,100821.00
2024-02-16T18:50:43.677Z,100820.16
2024-02-16T18:53:11.518Z,100823.94
2024-02-16T18:55:45.762Z,100829.50
2024-02-16T18:58:14.080Z,100831.44
2024-02-16T19:00:43.582Z,100836.06
2024-02-16T19:03:11.404Z,100840.78
2024-02-16T19:05:39.231Z,100835.44
2024-02-16T19:08:09.855Z,100845.56
2024-02-16T19:10:41.012Z,100847.34
2024-02-16T19:13:08.894Z,100852.94
2024-02-16T19:15:36.737Z,100849.56
2024-02-16T19:18:08.932Z,100850.50
2024-02-16T19:20:37.128Z,100854.28
2024-02-16T19:23:05.254Z,100856.94
2024-02-16T19:25:33.054Z,100862.41
2024-02-16T19:28:01.024Z,100856.34
2024-02-16T19:30:28.812Z,100868.00
2024-02-16T19:32:56.638Z,100860.09
2024-02-16T19:35:25.834Z,100867.28
2024-02-16T19:37:53.655Z,100867.28
2024-02-16T19:40:21.505Z,100865.56
2024-02-16T19:42:49.313Z,100870.16
2024-02-16T19:45:25.689Z,100872.94
2024-02-16T19:47:57.121Z,100872.19
2024-02-16T19:50:26.509Z,100874.00
2024-02-16T19:52:55.040Z,100878.50
2024-02-16T19:55:22.826Z,100882.03
2024-02-16T19:57:51.403Z,100886.50
2024-02-16T20:00:21.632Z,100890.13
2024-02-16T20:02:49.633Z,100884.94
2024-02-16T20:05:19.535Z,100892.06
2024-02-16T20:07:48.942Z,100892.06
2024-02-16T20:10:17.359Z,100889.56
2024-02-16T20:12:45.286Z,100902.03
2024-02-16T20:15:13.553Z,100907.38
2024-02-16T20:17:41.505Z,100908.25
2024-02-16T20:20:10.401Z,100915.38
2024-02-16T20:22:38.209Z,100916.25
2024-02-16T20:25:08.657Z,100911.97
2024-02-16T20:27:37.449Z,100912.81
2024-02-16T20:30:05.983Z,100914.53
2024-02-16T20:32:33.795Z,100922.53
2024-02-16T20:35:05.440Z,100931.38
2024-02-16T20:37:33.798Z,100920.97
2024-02-16T20:40:01.663Z,100929.06
2024-02-16T20:42:31.239Z,100932.59
2024-02-16T20:44:59.219Z,100928.09
2024-02-16T20:47:28.324Z,100923.75
2024-02-16T20:49:56.708Z,100937.94
2024-02-16T20:52:25.195Z,100933.56
2024-02-16T20:54:53.096Z,100939.00
2024-02-16T20:57:20.853Z,100943.38
2024-02-16T20:59:49.993Z,100946.19
2024-02-16T21:02:20.389Z,100948.84
2024-02-16T21:04:48.817Z,100952.47
2024-02-16T21:07:16.916Z,100953.44
2024-02-16T21:09:44.817Z,100954.28
2024-02-16T21:12:12.536Z,100962.31
2024-02-16T21:14:41.120Z,100963.16
2024-02-16T21:17:10.630Z,100964.88
2024-02-16T21:19:38.461Z,100966.78
2024-02-16T21:22:06.978Z,100971.25
2024-02-16T21:24:34.887Z,100973.09
2024-02-16T21:27:02.880Z,100970.31
2024-02-16T21:29:30.749Z,100970.41
2024-02-16T21:31:58.841Z,100972.97
2024-02-16T21:34:28.006Z,100972.88
2024-02-16T21:36:58.714Z,100980.72
2024-02-16T21:39:26.782Z,100980.63
2024-02-16T21:41:54.563Z,100974.34
2024-02-16T21:44:22.493Z,100982.19
2024-02-16T21:46:50.185Z,100989.38
2024-02-16T21:49:18.298Z,100984.88
2024-02-16T21:51:47.487Z,100986.59
2024-02-16T21:54:15.338Z,100997.16
2024-02-16T21:56:43.124Z,100997.88
2024-02-16T21:59:10.837Z,101001.50
2024-02-16T22:01:38.620Z,101010.38
2024-02-16T22:04:06.448Z,101007.81
2024-02-16T22:06:34.694Z,101011.44
2024-02-16T22:09:06.066Z,101016.69
2024-02-16T22:11:33.941Z,101015.72
2024-02-16T22:14:01.724Z,101019.34
2024-02-16T22:16:29.769Z,101019.34
2024-02-16T22:18:57.678Z,101027.47
2024-02-16T22:21:30.803Z,101034.72
2024-02-16T22:24:07.671Z,101034.84
2024-02-16T22:26:36.320Z,101034.84
2024-02-16T22:29:06.373Z,101042.75
2024-02-16T22:31:39.599Z,101042.63
2024-02-16T22:34:11.008Z,101047.88
2024-02-16T22:36:40.866Z,101071.63
2024-02-16T22:39:10.365Z,101084.03
2024-02-16T22:41:38.187Z,101082.56
2024-02-16T22:44:06.133Z,101088.22
2024-02-16T22:46:34.118Z,101090.50
2024-02-16T22:49:01.984Z,101094.38
2024-02-16T22:51:36.593Z,101093.84
2024-02-16T22:54:07.952Z,101096.00
2024-02-16T22:56:37.201Z,101095.16
2024-02-16T22:59:04.884Z,101104.22
2024-02-16T23:01:32.629Z,101108.94
2024-02-16T23:04:00.515Z,101113.66
2024-02-16T23:06:28.346Z,101121.13
2024-02-16T23:08:56.686Z,101123.28
2024-02-16T23:11:24.453Z,101115.59
2024-02-16T23:13:52.501Z,101122.66
2024-02-16T23:16:21.683Z,101125.41
2024-02-16T23:18:49.593Z,101122.25
2024-02-16T23:21:17.436Z,101129.38
2024-02-16T23:23:45.190Z,101129.59
2024-02-16T23:26:12.934Z,101131.38
2024-02-16T23:28:43.304Z,101138.53
2024-02-16T23:31:13.151Z,101141.97
2024-02-16T23:33:41.064Z,101145.47
2024-02-16T23:36:09.478Z,101149.84
2024-02-16T23:38:37.276Z,101151.69
2024-02-16T23:41:05.101Z,101157.75
2024-02-16T23:43:32.814Z,101160.41
2024-02-16T23:46:02.466Z,101160.41
2024-02-16T23:48:31.722Z,101165.97
2024-02-16T23:50:59.675Z,101160.72
2024-02-16T23:53:27.628Z,101166.78
2024-02-16T23:55:57.007Z,101165.97
2024-02-16T23:58:25.765Z,101169.25
